Time;durP1;ratioP1;P1;durP2;ratioP2;P2;SDS_P1;SDS_P2;PMS_P1;PMS_P2;Temp;Humidity;BMP_temperature;BMP_pressure;BME280_temperature;BME280_humidity;BME280_pressure;Samples;Min_cycle;Max_cycle;Signal;HPM_P1;HPM_P2
2023/03/25 00:00:14;;;;;;;;;;;12.00;92.60;;;12.10;59.89;98117.91;4968664;28;123832;-78
2023/03/25 00:02:43;;;;;;;;;;;11.90;92.70;;;11.97;60.38;98123.72;4991539;28;114549;-76
2023/03/25 00:05:11;;;;;;;;;;;11.70;92.70;;;11.84;60.99;98109.78;5001426;28;113744;-79
2023/03/25 00:07:37;;;;;;;;;;;11.70;92.90;;;11.76;61.04;98102.34;4963645;28;125323;-77
2023/03/25 00:10:05;;;;;;;;;;;11.60;92.90;;;11.70;60.69;98095.41;4985650;28;124300;-79
2023/03/25 00:12:31;;;;;;;;;;;11.50;92.80;;;11.63;60.22;98089.59;4957749;28;115537;-82
2023/03/25 00:14:58;;;;;;;;;;;11.40;92.60;;;11.56;60.21;98078.28;4959403;28;114641;-79
2023/03/25 00:17:27;;;;;;;;;;;11.30;92.60;;;11.52;60.54;98080.06;4967258;28;123418;-83
2023/03/25 00:19:54;;;;;;;;;;;11.30;92.60;;;11.47;60.39;98070.00;4953066;28;124282;-80
2023/03/25 00:22:21;;;;;;;;;;;11.20;92.60;;;11.44;60.03;98067.91;4956958;28;113431;-76
2023/03/25 00:24:47;;;;;;;;;;;11.20;92.60;;;11.41;60.00;98086.00;4963017;28;112584;-77
2023/03/25 00:27:16;;;;;;;;;;;11.20;92.50;;;11.38;59.95;98078.38;4994230;28;124512;-79
2023/03/25 00:29:44;;;;;;;;;;;11.10;92.40;;;11.36;59.82;98091.72;4964514;28;124296;-78
2023/03/25 00:32:11;;;;;;;;;;;11.10;92.40;;;11.34;59.72;98082.97;4961365;28;113981;-78
2023/03/25 00:34:45;;;;;;;;;;;11.10;92.30;;;11.33;59.82;98088.81;4955997;28;113770;-81
2023/03/25 00:37:16;;;;;;;;;;;11.10;92.30;;;11.31;59.69;98089.19;4957615;28;124370;-77
2023/03/25 00:39:44;;;;;;;;;;;11.10;92.30;;;11.31;59.60;98091.94;4997058;28;124262;-78
2023/03/25 00:42:12;;;;;;;;;;;11.10;92.30;;;11.31;59.53;98096.63;4966501;28;114559;-77
2023/03/25 00:44:39;;;;;;;;;;;11.10;92.30;;;11.28;59.72;98087.06;4961732;28;113473;-76
2023/03/25 00:47:06;;;;;;;;;;;11.00;92.20;;;11.25;59.58;98085.75;4950281;28;124881;-77
2023/03/25 00:49:32;;;;;;;;;;;11.00;92.20;;;11.26;59.46;98090.16;4992560;28;122803;-77
2023/03/25 00:51:58;;;;;;;;;;;11.00;92.20;;;11.28;59.28;98092.59;4963262;28;116696;-78
2023/03/25 00:54:25;;;;;;;;;;;11.00;92.10;;;11.28;59.60;98079.59;4960691;28;113806;-81
2023/03/25 00:56:51;;;;;;;;;;;11.10;92.20;;;11.31;59.29;98069.81;4955730;28;125128;-76
2023/03/25 00:59:18;;;;;;;;;;;11.10;92.10;;;11.35;59.42;98061.66;4958053;28;122353;-78
2023/03/25 01:01:47;;;;;;;;;;;11.10;92.10;;;11.41;59.47;98080.47;4964101;28;115634;-78
2023/03/25 01:04:15;;;;;;;;;;;11.20;92.10;;;11.46;58.82;98066.44;4962171;28;114720;-78
2023/03/25 01:06:44;;;;;;;;;;;11.20;92.00;;;11.50;58.91;98058.28;4959752;28;124390;-79
2023/03/25 01:09:12;;;;;;;;;;;11.20;92.00;;;11.50;57.91;98056.34;4976943;28;124493;-82
2023/03/25 01:11:40;;;;;;;;;;;11.20;91.60;;;11.48;57.54;98053.09;4951604;28;114297;-78
2023/03/25 01:14:10;;;;;;;;;;;11.20;91.20;;;11.42;57.18;98057.22;4989401;28;113933;-80
2023/03/25 01:16:36;;;;;;;;;;;11.10;90.80;;;11.38;56.83;98070.06;4959713;28;123756;-76
2023/03/25 01:19:02;;;;;;;;;;;11.00;90.60;;;11.32;56.97;98067.84;4965610;28;123871;-78
2023/03/25 01:21:32;;;;;;;;;;;11.00;90.70;;;11.27;56.83;98075.19;4957874;28;114417;-78
2023/03/25 01:23:59;;;;;;;;;;;11.00;90.60;;;11.25;56.56;98071.94;4963183;28;114134;-77
2023/03/25 01:26:25;;;;;;;;;;;11.00;90.60;;;11.24;56.97;98064.00;4957428;28;124260;-75
2023/03/25 01:28:52;;;;;;;;;;;10.90;90.60;;;11.23;56.45;98065.97;4962358;28;123900;-77
2023/03/25 01:31:21;;;;;;;;;;;10.90;90.60;;;11.20;57.02;98060.25;4966806;28;114439;-77
2023/03/25 01:33:48;;;;;;;;;;;10.90;90.60;;;11.18;56.75;98044.03;4967969;28;114218;-77
2023/03/25 01:36:15;;;;;;;;;;;10.80;90.60;;;11.19;56.95;98044.84;4984085;28;123081;-76
2023/03/25 01:38:41;;;;;;;;;;;10.80;90.60;;;11.18;57.02;98060.63;4966677;28;123818;-77
2023/03/25 01:41:08;;;;;;;;;;;10.90;90.70;;;11.19;56.93;98062.22;4975329;28;115031;-77
2023/03/25 01:43:35;;;;;;;;;;;10.90;90.70;;;11.22;57.28;98044.16;4988022;28;113704;-78
2023/03/25 01:46:01;;;;;;;;;;;10.90;90.70;;;11.23;57.11;98031.94;4967977;28;124090;-78
2023/03/25 01:48:37;;;;;;;;;;;10.90;90.70;;;11.25;57.11;98046.25;4966457;28;123992;-77
2023/03/25 01:51:16;;;;;;;;;;;11.00;90.80;;;11.26;57.42;98050.66;4984543;28;115507;-75
2023/03/25 01:53:42;;;;;;;;;;;11.00;90.80;;;11.25;57.12;98054.53;4963614;28;115583;-78
2023/03/25 01:56:12;;;;;;;;;;;10.90;90.70;;;11.23;57.27;98051.28;4970740;28;124404;-76
2023/03/25 01:58:39;;;;;;;;;;;10.90;90.70;;;11.21;57.05;98039.78;4947721;28;122675;-76
2023/03/25 02:01:06;;;;;;;;;;;10.90;90.60;;;11.17;56.87;98033.28;4965920;28;114055;-77
2023/03/25 02:03:36;;;;;;;;;;;10.90;90.50;;;11.14;56.62;98037.53;4962273;28;113434;-76
2023/03/25 02:06:06;;;;;;;;;;;10.90;90.50;;;11.14;56.59;98020.16;4966178;28;123937;-77
2023/03/25 02:08:37;;;;;;;;;;;10.80;90.40;;;11.12;56.47;98016.91;4961460;28;124551;-76
2023/03/25 02:11:05;;;;;;;;;;;10.80;90.40;;;11.09;56.39;98003.75;4998949;28;114242;-77
2023/03/25 02:13:32;;;;;;;;;;;10.80;90.40;;;11.09;56.56;98012.03;4966137;28;113839;-77
2023/03/25 02:16:29;;;;;;;;;;;10.80;90.40;;;11.08;56.65;98022.28;4952645;28;125864;-76
2023/03/25 02:18:56;;;;;;;;;;;10.80;90.40;;;11.04;56.87;98022.16;4966213;28;123696;-76
2023/03/25 02:21:49;;;;;;;;;;;10.70;90.40;;;11.03;56.79;98031.59;4968225;28;114409;-79
2023/03/25 02:24:28;;;;;;;;;;;10.70;90.50;;;11.03;57.10;98028.81;4970105;28;113302;-81
2023/03/25 02:27:40;;;;;;;;;;;10.70;90.60;;;11.00;57.14;98036.97;4967377;28;123848;-78
2023/03/25 02:30:41;;;;;;;;;;;10.70;90.80;;;10.99;57.32;98043.66;4944637;28;124064;-78
2023/03/25 02:33:13;;;;;;;;;;;10.70;90.90;;;10.97;58.03;98046.75;4964359;28;114404;-76
2023/03/25 02:35:55;;;;;;;;;;;9.80;91.20;;;10.94;57.92;98050.19;4953104;28;113952;-76
2023/03/25 02:38:39;;;;;;;;;;;10.60;91.30;;;10.93;58.25;98056.84;4967573;28;124858;-77
2023/03/25 02:41:21;;;;;;;;;;;10.60;91.40;;;10.88;58.76;98065.34;4994077;28;124615;-77
2023/03/25 02:43:50;;;;;;;;;;;10.60;91.70;;;10.84;59.07;98058.84;4970934;28;115125;-77
2023/03/25 02:46:18;;;;;;;;;;;10.60;91.80;;;10.80;59.48;98058.72;4968851;28;114931;-77
2023/03/25 02:48:53;;;;;;;;;;;10.60;92.00;;;10.78;59.75;98072.03;4961444;28;123645;-77
2023/03/25 02:51:43;;;;;;;;;;;10.50;92.10;;;10.75;59.72;98092.03;4993046;28;123201;-75
2023/03/25 02:54:12;;;;;;;;;;;10.50;92.30;;;10.72;60.50;98111.22;4964114;28;114484;-76
2023/03/25 02:56:40;;;;;;;;;;;10.40;92.40;;;10.67;60.02;98094.84;4969980;28;113576;-78
2023/03/25 02:59:07;;;;;;;;;;;10.40;92.30;;;10.53;60.44;98089.50;4998659;28;124661;-77
2023/03/25 03:01:34;;;;;;;;;;;10.30;92.20;;;10.44;59.84;98075.72;4965693;28;124595;-77
2023/03/25 03:04:01;;;;;;;;;;;10.30;92.10;;;10.41;60.52;98059.03;4980371;28;114268;-76
2023/03/25 03:06:27;;;;;;;;;;;10.30;92.20;;;10.42;60.23;98055.91;4959236;28;113739;-76
2023/03/25 03:09:17;;;;;;;;;;;10.30;92.20;;;10.45;60.38;98052.50;4967719;28;124400;-76
2023/03/25 03:12:02;;;;;;;;;;;10.30;92.40;;;10.47;60.46;98052.97;4975297;28;123954;-77
2023/03/25 03:14:53;;;;;;;;;;;10.30;92.30;;;10.49;60.49;98050.69;4963655;28;114684;-78
2023/03/25 03:17:25;;;;;;;;;;;10.30;92.40;;;10.50;60.46;98041.25;4968136;28;113536;-77
2023/03/25 03:19:59;;;;;;;;;;;10.30;92.40;;;10.54;60.13;98047.75;4968604;28;124126;-81
2023/03/25 03:22:37;;;;;;;;;;;10.30;92.30;;;10.59;60.45;98036.53;4973189;28;124030;-77
2023/03/25 03:25:26;;;;;;;;;;;10.40;92.40;;;10.67;60.30;98050.66;4973624;28;113686;-76
2023/03/25 03:27:57;;;;;;;;;;;10.40;92.40;;;10.73;59.72;98049.31;4973008;28;113973;-76
2023/03/25 03:30:49;;;;;;;;;;;10.50;92.40;;;10.78;59.73;98049.13;4984816;28;124564;-76
2023/03/25 03:33:25;;;;;;;;;;;10.40;92.20;;;10.78;59.53;98057.41;4960350;28;123961;-79
2023/03/25 03:35:56;;;;;;;;;;;10.40;92.10;;;10.77;59.01;98056.63;4960142;28;115329;-79
2023/03/25 03:38:25;;;;;;;;;;;10.40;91.90;;;10.78;58.59;98057.41;4970642;28;114841;-80
2023/03/25 03:40:55;;;;;;;;;;;10.40;91.70;;;10.76;57.72;98059.69;4958040;28;123112;-79
2023/03/25 03:43:30;;;;;;;;;;;10.40;91.40;;;10.72;57.34;98067.84;4975356;28;122718;-76
2023/03/25 03:46:05;;;;;;;;;;;10.30;90.90;;;10.66;56.79;98080.19;4962945;28;114201;-76
2023/03/25 03:48:39;;;;;;;;;;;10.30;90.80;;;10.60;57.22;98087.06;4976507;28;113349;-76
2023/03/25 03:51:28;;;;;;;;;;;10.20;90.70;;;10.54;56.96;98086.44;4966459;28;124083;-76
2023/03/25 03:53:59;;;;;;;;;;;10.20;90.60;;;10.48;56.91;98104.31;4955993;28;124661;-76
2023/03/25 03:56:52;;;;;;;;;;;10.10;90.60;;;10.45;56.87;98088.41;4962564;28;114187;-76
2023/03/25 03:59:41;;;;;;;;;;;10.10;90.60;;;10.36;57.04;98096.69;4956414;28;113932;-77
2023/03/25 04:02:16;;;;;;;;;;;10.10;90.50;;;10.34;57.17;98092.63;4989289;28;122482;-76
2023/03/25 04:04:42;;;;;;;;;;;10.00;90.50;;;10.29;56.77;98106.63;4968469;28;123951;-76
2023/03/25 04:07:15;;;;;;;;;;;10.00;90.50;;;10.25;57.18;98094.59;4969817;28;114417;-76
2023/03/25 04:09:53;;;;;;;;;;;9.90;91.00;;;10.21;57.23;98096.38;4971834;28;113801;-76
2023/03/25 04:12:24;;;;;;;;;;;9.90;91.10;;;10.17;57.41;98097.03;4968073;28;124323;-76
2023/03/25 04:14:53;;;;;;;;;;;9.90;91.10;;;10.15;57.72;98106.78;4971109;28;124182;-76
2023/03/25 04:17:21;;;;;;;;;;;9.90;91.20;;;10.14;57.42;98107.94;4969948;28;114909;-76
2023/03/25 04:19:52;;;;;;;;;;;9.80;91.20;;;10.11;57.63;98105.81;4961526;28;113889;-76
2023/03/25 04:22:20;;;;;;;;;;;9.80;91.20;;;10.08;57.56;98100.97;4969736;28;124304;-76
2023/03/25 04:24:53;;;;;;;;;;;9.80;91.20;;;10.07;57.72;98110.34;4985209;28;123694;-76
2023/03/25 04:27:21;;;;;;;;;;;9.80;91.20;;;10.08;57.72;98112.00;4970420;28;115302;-76
2023/03/25 04:29:50;;;;;;;;;;;9.80;91.30;;;10.06;57.79;98101.28;4976635;28;114707;-76
2023/03/25 04:32:17;;;;;;;;;;;9.80;91.70;;;10.06;57.77;98112.31;4970914;28;124208;-76
2023/03/25 04:34:43;;;;;;;;;;;9.80;91.40;;;10.07;57.83;98108.41;4970177;28;123914;-76
2023/03/25 04:37:10;;;;;;;;;;;9.80;91.40;;;10.08;58.07;98107.28;4968920;28;113314;-76
2023/03/25 04:39:38;;;;;;;;;;;9.80;91.30;;;10.10;58.12;98102.25;4960339;28;113950;-78
2023/03/25 04:42:05;;;;;;;;;;;9.80;91.30;;;10.11;58.08;98095.59;4988917;28;123524;-76
2023/03/25 04:44:37;;;;;;;;;;;9.80;91.30;;;10.11;58.05;98112.16;4997454;28;122833;-77
2023/03/25 04:47:13;;;;;;;;;;;9.80;91.30;;;10.10;57.56;98113.28;4970827;28;114472;-76
2023/03/25 04:49:43;;;;;;;;;;;9.80;91.30;;;10.10;57.58;98112.47;4986624;28;113780;-76
2023/03/25 04:52:10;;;;;;;;;;;9.80;91.30;;;10.10;57.96;98110.53;4972545;28;124362;-76
2023/03/25 04:54:39;;;;;;;;;;;9.80;91.30;;;10.11;57.68;98103.06;4968198;28;124066;-76
2023/03/25 04:57:07;;;;;;;;;;;9.80;91.30;;;10.13;57.68;98107.13;4973817;28;114169;-76
2023/03/25 04:59:34;;;;;;;;;;;9.80;91.30;;;10.16;57.88;98109.22;4971520;28;113709;-77
2023/03/25 05:02:02;;;;;;;;;;;9.80;91.30;;;10.18;57.79;98106.94;4970227;28;124450;-77
2023/03/25 05:04:28;;;;;;;;;;;9.90;91.30;;;10.21;57.72;98111.00;4973367;28;124608;-77
2023/03/25 05:06:55;;;;;;;;;;;9.90;91.20;;;10.20;57.66;98114.09;4971926;28;114446;-76
2023/03/25 05:09:22;;;;;;;;;;;9.90;91.20;;;10.16;57.26;98123.03;4988180;28;112859;-77
2023/03/25 05:11:50;;;;;;;;;;;9.80;91.10;;;10.12;57.42;98118.47;4967508;28;123567;-76
2023/03/25 05:14:18;;;;;;;;;;;9.80;91.00;;;10.09;57.04;98132.94;4973160;28;124662;-76
2023/03/25 05:16:45;;;;;;;;;;;9.80;91.00;;;10.07;57.28;98138.75;4970627;28;114441;-76
2023/03/25 05:19:12;;;;;;;;;;;9.80;90.90;;;10.05;57.28;98138.31;4970660;28;114167;-76
2023/03/25 05:21:39;;;;;;;;;;;9.80;90.90;;;10.04;57.19;98135.84;4958148;28;123528;-77
2023/03/25 05:24:09;;;;;;;;;;;9.80;90.80;;;10.04;56.85;98142.19;4977357;28;123384;-76
2023/03/25 05:26:38;;;;;;;;;;;9.80;90.70;;;10.03;57.04;98137.81;4988036;28;114696;-76
2023/03/25 05:29:07;;;;;;;;;;;9.80;90.70;;;10.03;56.90;98151.59;4970648;28;113679;-76
2023/03/25 05:31:34;;;;;;;;;;;9.70;90.60;;;10.05;56.91;98146.56;4969160;28;125975;-76
2023/03/25 05:34:05;;;;;;;;;;;10.90;90.60;;;10.07;56.63;98152.56;4972586;28;124437;-76
2023/03/25 05:36:31;;;;;;;;;;;9.80;90.50;;;10.08;56.37;98145.13;4971652;28;114684;-76
2023/03/25 05:38:58;;;;;;;;;;;9.80;90.60;;;10.09;56.60;98144.78;4969090;28;113915;-76
2023/03/25 05:41:37;;;;;;;;;;;9.80;90.60;;;10.11;56.95;98134.22;4968705;28;124623;-76
2023/03/25 05:44:05;;;;;;;;;;;9.80;90.60;;;10.15;56.93;98137.97;4972835;28;124639;-76
2023/03/25 05:46:32;;;;;;;;;;;9.80;90.70;;;10.18;56.52;98140.06;4969559;28;114285;-76
2023/03/25 05:48:59;;;;;;;;;;;9.80;90.60;;;10.19;56.35;98140.88;4967373;28;114036;-79
2023/03/25 05:51:27;;;;;;;;;;;9.80;90.60;;;10.22;56.60;98143.00;4966827;28;124794;-76
2023/03/25 05:53:53;;;;;;;;;;;9.90;90.60;;;10.25;56.49;98138.75;4965907;28;124177;-77
2023/03/25 05:56:21;;;;;;;;;;;9.90;90.60;;;10.29;56.68;98134.22;4982524;28;113202;-77
2023/03/25 05:58:49;;;;;;;;;;;9.90;90.70;;;10.34;56.41;98134.91;4969645;28;113730;-76
2023/03/25 06:01:17;;;;;;;;;;;10.00;90.20;;;10.36;56.31;98132.59;4968811;28;124331;-76
2023/03/25 06:03:44;;;;;;;;;;;10.00;90.20;;;10.39;56.13;98145.75;4968262;28;124480;-77
2023/03/25 06:06:17;;;;;;;;;;;10.00;90.10;;;10.42;56.36;98138.75;4961905;28;114329;-78
2023/03/25 06:08:45;;;;;;;;;;;10.00;90.10;;;10.44;56.16;98150.28;4991176;28;114758;-77
2023/03/25 06:11:15;;;;;;;;;;;9.70;90.40;;;10.45;56.43;98153.84;4965968;28;124511;-77
2023/03/25 06:13:50;;;;;;;;;;;10.10;90.10;;;10.47;56.17;98152.41;4966684;28;124178;-77
2023/03/25 06:16:31;;;;;;;;;;;10.10;90.10;;;10.52;56.56;98157.75;4964910;28;114610;-78
2023/03/25 06:18:58;;;;;;;;;;;10.20;90.20;;;10.55;56.15;98173.66;4990519;28;113759;-76
2023/03/25 06:21:31;;;;;;;;;;;10.20;90.20;;;10.59;56.30;98165.56;4964620;28;124190;-77
2023/03/25 06:23:59;;;;;;;;;;;10.20;90.10;;;10.62;56.65;98170.41;4967837;28;124412;-77
2023/03/25 06:26:25;;;;;;;;;;;10.30;90.20;;;10.66;56.63;98165.84;4970614;28;114882;-76
2023/03/25 06:28:51;;;;;;;;;;;10.30;90.20;;;10.71;56.30;98162.09;4969654;28;113580;-78
2023/03/25 06:31:25;;;;;;;;;;;10.30;90.20;;;10.76;56.58;98170.22;4958399;28;123990;-78
2023/03/25 06:33:52;;;;;;;;;;;10.40;90.20;;;10.82;56.16;98153.13;4954875;28;124094;-76
2023/03/25 06:36:19;;;;;;;;;;;10.40;90.20;;;10.88;56.24;98159.31;4980933;28;114667;-77
2023/03/25 06:38:46;;;;;;;;;;;10.50;90.20;;;10.93;56.13;98158.28;4960106;28;115448;-76
2023/03/25 06:41:14;;;;;;;;;;;10.50;90.20;;;10.95;55.90;98156.00;4957341;28;124638;-77
2023/03/25 06:43:40;;;;;;;;;;;10.60;90.20;;;11.03;56.08;98164.25;4963174;28;124567;-80
2023/03/25 06:46:07;;;;;;;;;;;10.60;90.10;;;11.12;55.45;98166.19;4957075;28;114403;-77
2023/03/25 06:48:33;;;;;;;;;;;10.70;90.10;;;11.20;55.47;98173.63;4964745;28;113612;-78
2023/03/25 06:51:00;;;;;;;;;;;10.70;90.00;;;11.26;55.14;98162.06;4965023;28;124289;-79
2023/03/25 06:53:26;;;;;;;;;;;11.00;90.10;;;11.32;54.95;98168.22;4960289;28;122986;-77
2023/03/25 06:55:55;;;;;;;;;;;10.80;89.60;;;11.34;54.50;98174.25;4969545;28;115124;-79
2023/03/25 06:58:21;;;;;;;;;;;10.80;89.00;;;11.35;54.13;98177.81;4963710;28;114613;-78
2023/03/25 07:00:55;;;;;;;;;;;10.90;88.80;;;11.35;54.39;98170.31;4965849;28;124277;-77
2023/03/25 07:03:21;;;;;;;;;;;10.90;88.80;;;11.34;54.35;98168.72;4981425;28;123828;-77
2023/03/25 07:05:48;;;;;;;;;;;10.90;88.50;;;11.38;54.43;98174.38;4975203;28;114988;-78
2023/03/25 07:08:14;;;;;;;;;;;11.00;88.70;;;11.46;54.34;98171.56;4969017;28;113843;-78
2023/03/25 07:10:41;;;;;;;;;;;11.10;88.70;;;11.49;53.99;98173.66;4956364;28;124181;-77
2023/03/25 07:13:08;;;;;;;;;;;11.10;88.50;;;11.53;53.79;98170.25;4972145;28;123881;-77
2023/03/25 07:15:35;;;;;;;;;;;11.20;88.30;;;11.50;53.63;98188.31;4958642;28;115355;-76
2023/03/25 07:18:02;;;;;;;;;;;11.10;87.70;;;11.43;53.54;98180.53;4954039;28;113818;-78
2023/03/25 07:20:28;;;;;;;;;;;11.10;87.70;;;11.37;53.70;98181.88;4960830;28;123921;-78
2023/03/25 07:22:54;;;;;;;;;;;11.10;87.50;;;11.31;53.59;98185.13;4963908;28;123968;-79
2023/03/25 07:25:21;;;;;;;;;;;11.00;87.10;;;11.24;54.09;98174.59;4970767;28;114408;-77
2023/03/25 07:27:47;;;;;;;;;;;10.90;87.40;;;11.24;54.25;98185.66;4967579;28;113723;-78
2023/03/25 07:30:14;;;;;;;;;;;10.90;87.80;;;11.20;54.47;98181.94;4967701;28;124628;-76
2023/03/25 07:32:43;;;;;;;;;;;10.90;88.10;;;11.20;54.63;98187.47;4966768;28;124133;-76
2023/03/25 07:35:10;;;;;;;;;;;10.90;88.40;;;11.22;55.26;98176.88;4967848;28;114053;-79
2023/03/25 07:37:36;;;;;;;;;;;10.90;88.60;;;11.28;54.50;98181.06;4972308;28;113602;-76
2023/03/25 07:40:03;;;;;;;;;;;10.90;88.70;;;11.38;54.72;98179.91;4972716;28;123693;-77
2023/03/25 07:42:30;;;;;;;;;;;11.00;88.90;;;11.44;55.02;98184.91;4967413;28;123726;-76
2023/03/25 07:44:56;;;;;;;;;;;11.00;89.00;;;11.52;54.66;98180.47;4964329;28;115619;-78
2023/03/25 07:47:22;;;;;;;;;;;11.10;89.00;;;11.62;54.69;98171.78;4959112;28;113694;-79
2023/03/25 07:49:49;;;;;;;;;;;11.20;89.10;;;11.74;54.85;98173.84;4953504;28;124060;-76
2023/03/25 07:52:15;;;;;;;;;;;11.30;89.20;;;11.82;54.46;98167.44;4953114;28;124845;-75
2023/03/25 07:54:41;;;;;;;;;;;11.40;89.20;;;11.94;54.66;98170.31;4963521;28;114296;-77
2023/03/25 07:57:08;;;;;;;;;;;11.40;89.20;;;12.06;53.75;98177.06;4974238;28;113689;-78
2023/03/25 07:59:34;;;;;;;;;;;11.50;88.90;;;12.14;53.74;98167.88;4953598;28;124524;-79
2023/03/25 08:02:01;;;;;;;;;;;11.50;88.60;;;12.22;53.67;98164.22;4965138;28;123611;-82
2023/03/25 08:04:27;;;;;;;;;;;11.70;88.70;;;12.29;53.66;98167.25;4964517;28;114292;-78
2023/03/25 08:06:54;;;;;;;;;;;11.70;88.60;;;12.33;53.28;98151.59;4970251;28;113480;-76
2023/03/25 08:09:20;;;;;;;;;;;11.80;88.30;;;12.37;53.52;98166.38;4956843;28;124676;-78
2023/03/25 08:11:47;;;;;;;;;;;11.90;88.20;;;12.38;52.82;98173.53;4956822;28;123897;-81
2023/03/25 08:14:14;;;;;;;;;;;11.90;87.80;;;12.36;52.79;98156.44;4965006;28;114255;-79
2023/03/25 08:16:40;;;;;;;;;;;11.90;87.20;;;12.36;52.42;98155.66;4960534;28;113970;-78
2023/03/25 08:19:07;;;;;;;;;;;11.90;86.90;;;12.40;52.18;98164.88;4973574;28;124257;-78
2023/03/25 08:21:33;;;;;;;;;;;11.90;87.00;;;12.44;52.12;98159.47;4973088;28;123824;-78
2023/03/25 08:24:03;;;;;;;;;;;11.90;86.80;;;12.48;52.16;98172.28;4970857;28;114351;-78
2023/03/25 08:26:30;;;;;;;;;;;12.00;86.60;;;12.53;52.08;98171.28;4967646;28;114146;-78
2023/03/25 08:28:57;;;;;;;;;;;12.00;86.50;;;12.56;52.23;98167.84;4970215;28;124762;-77
2023/03/25 08:31:25;;;;;;;;;;;12.10;86.40;;;12.57;51.33;98169.44;4970726;28;124065;-78
2023/03/25 08:33:51;;;;;;;;;;;12.10;85.80;;;12.48;51.55;98177.84;4968578;28;115557;-78
2023/03/25 08:36:18;;;;;;;;;;;12.10;85.70;;;12.43;51.45;98174.47;4972747;28;115491;-78
2023/03/25 08:38:46;;;;;;;;;;;12.00;85.00;;;12.34;51.79;98175.38;4963263;28;123267;-78
2023/03/25 08:41:12;;;;;;;;;;;12.00;85.40;;;12.29;52.33;98174.75;4962251;28;123815;-77
2023/03/25 08:43:39;;;;;;;;;;;11.90;85.90;;;12.19;52.44;98195.34;4986361;28;113803;-77
2023/03/25 08:46:05;;;;;;;;;;;11.80;86.50;;;12.08;54.28;98192.19;4968889;28;114037;-77
2023/03/25 08:48:32;;;;;;;;;;;11.70;87.60;;;11.96;54.45;98192.13;4987341;28;122895;-76
2023/03/25 08:50:58;;;;;;;;;;;11.70;88.40;;;11.85;55.25;98180.59;4984934;28;124321;-77
2023/03/25 08:53:24;;;;;;;;;;;11.60;89.10;;;11.81;55.01;98199.03;4968577;28;114339;-78
2023/03/25 08:55:52;;;;;;;;;;;11.60;89.00;;;11.75;55.15;98189.31;4954252;28;114026;-78
2023/03/25 08:58:21;;;;;;;;;;;11.50;88.90;;;11.67;54.97;98196.50;4975647;28;117729;-78
2023/03/25 09:00:53;;;;;;;;;;;11.40;88.90;;;11.54;55.78;98199.50;4957286;28;124601;-79
2023/03/25 09:03:23;;;;;;;;;;;11.30;89.30;;;11.40;56.51;98200.56;4957690;28;114758;-79
2023/03/25 09:05:49;;;;;;;;;;;11.20;90.00;;;11.29;57.11;98199.31;4954531;28;113740;-81
2023/03/25 09:08:16;;;;;;;;;;;11.10;90.40;;;11.22;57.96;98210.06;4959223;28;124273;-76
2023/03/25 09:10:42;;;;;;;;;;;11.00;90.80;;;11.15;58.05;98204.22;4968044;28;123351;-78
2023/03/25 09:13:09;;;;;;;;;;;10.90;90.80;;;11.11;58.58;98189.47;4973899;28;114485;-84
2023/03/25 09:15:35;;;;;;;;;;;10.90;91.20;;;11.06;59.04;98190.44;4958741;28;114118;-80
2023/03/25 09:18:02;;;;;;;;;;;10.90;91.30;;;11.03;59.16;98169.00;4963761;28;124279;-78
2023/03/25 09:20:28;;;;;;;;;;;10.80;91.60;;;11.06;59.38;98169.13;4972584;28;124096;-74
2023/03/25 09:22:55;;;;;;;;;;;10.80;91.70;;;11.18;60.28;98160.16;4967909;28;115530;-81
2023/03/25 09:25:21;;;;;;;;;;;10.90;92.30;;;11.36;61.95;98171.13;4965420;28;115312;-69
2023/03/25 09:27:47;;;;;;;;;;;11.00;93.80;;;11.53;61.24;98159.97;4967189;28;124337;-70
2023/03/25 09:30:17;;;;;;;;;;;11.10;93.50;;;11.65;60.28;98164.78;4968669;28;123895;-70
2023/03/25 09:32:43;;;;;;;;;;;11.20;93.10;;;11.72;59.94;98145.69;4964762;28;114478;-70
2023/03/25 09:35:10;;;;;;;;;;;11.30;93.00;;;11.79;59.50;98162.56;4971373;28;113719;-73
2023/03/25 09:37:36;;;;;;;;;;;11.30;92.70;;;11.83;59.92;98160.75;4968799;28;124209;-70
2023/03/25 09:40:04;;;;;;;;;;;11.40;92.80;;;11.94;60.05;98156.47;4968819;28;123981;-70
2023/03/25 09:42:53;;;;;;;;;;;11.50;93.10;;;12.02;60.13;98149.25;4970419;28;114563;-70
2023/03/25 09:45:39;;;;;;;;;;;11.60;93.10;;;12.13;60.03;98144.09;4968648;28;113756;-79
2023/03/25 09:55:01;;;;;;;;;;;11.80;92.80;;;12.33;59.20;98151.59;4951232;28;115306;-81
2023/03/25 09:57:30;;;;;;;;;;;11.90;92.70;;;12.37;59.09;98146.16;4954324;28;113463;-79
2023/03/25 09:59:58;;;;;;;;;;;11.90;92.60;;;12.39;58.93;98143.88;4987432;28;123230;-81
2023/03/25 10:02:37;;;;;;;;;;;12.00;92.70;;;12.44;59.01;98145.59;4981822;28;124501;-81
2023/03/25 10:05:32;;;;;;;;;;;12.00;92.50;;;12.43;58.91;98141.22;4958216;28;115262;-81
2023/03/25 10:08:14;;;;;;;;;;;12.00;92.50;;;12.38;58.78;98145.84;4966316;28;112972;-81
2023/03/25 10:11:08;;;;;;;;;;;12.00;92.40;;;12.36;58.78;98164.75;4952676;28;124070;-81
2023/03/25 10:13:52;;;;;;;;;;;12.00;92.50;;;12.32;59.23;98151.91;4951335;28;124163;-79
2023/03/25 10:16:44;;;;;;;;;;;12.00;92.50;;;12.31;58.93;98142.00;4952974;28;115740;-79
2023/03/25 10:19:32;;;;;;;;;;;12.00;92.50;;;12.25;58.51;98146.94;4950934;28;114664;-78
2023/03/25 10:22:13;;;;;;;;;;;11.90;92.20;;;12.26;58.20;98147.75;4951041;28;126123;-78
2023/03/25 10:24:47;;;;;;;;;;;11.90;92.20;;;12.27;58.45;98138.28;4952977;28;124538;-77
2023/03/25 10:27:32;;;;;;;;;;;11.90;92.20;;;12.26;57.98;98122.81;4951021;28;114487;-79
2023/03/25 10:30:11;;;;;;;;;;;11.90;91.90;;;12.29;57.35;98136.78;4951840;28;113520;-78
2023/03/25 10:32:43;;;;;;;;;;;11.90;91.70;;;12.35;57.72;98121.56;4949026;28;124276;-80
2023/03/25 10:35:31;;;;;;;;;;;11.90;91.70;;;12.45;57.42;98122.31;4964340;28;123068;-78
2023/03/25 10:38:00;;;;;;;;;;;12.00;91.70;;;12.55;57.17;98113.56;4949543;28;114388;-80
2023/03/25 10:40:35;;;;;;;;;;;12.10;91.70;;;12.68;56.18;98119.94;4952470;28;113914;-78
2023/03/25 10:43:32;;;;;;;;;;;12.20;91.10;;;12.78;54.82;98122.25;4960398;28;125229;-76
2023/03/25 10:46:36;;;;;;;;;;;12.30;90.60;;;12.86;54.31;98126.91;4948878;28;123762;-76
2023/03/25 10:49:02;;;;;;;;;;;12.40;90.20;;;12.93;54.21;98115.25;4968641;28;114678;-77
2023/03/25 10:51:31;;;;;;;;;;;12.50;90.10;;;13.02;54.07;98113.19;4951045;28;113681;-77
2023/03/25 10:53:58;;;;;;;;;;;12.60;90.00;;;13.06;52.34;98147.41;4956260;28;124117;-76
2023/03/25 10:56:30;;;;;;;;;;;12.60;88.10;;;13.08;50.33;98122.06;4983504;28;123981;-76
2023/03/25 10:58:57;;;;;;;;;;;12.60;85.20;;;13.04;50.75;98113.66;4965602;28;115326;-77
2023/03/25 11:01:38;;;;;;;;;;;12.60;85.10;;;13.00;50.40;98126.56;4960549;28;113849;-75
2023/03/25 11:04:06;;;;;;;;;;;12.60;84.70;;;12.98;51.19;98123.34;4965732;28;123119;-77
2023/03/25 11:06:38;;;;;;;;;;;12.60;85.70;;;13.04;51.70;98113.66;4956044;28;124532;-76
2023/03/25 11:09:25;;;;;;;;;;;12.60;86.10;;;13.08;51.68;98122.88;4948923;28;114864;-78
2023/03/25 11:11:53;;;;;;;;;;;12.70;86.10;;;13.08;50.58;98122.06;4986697;28;114726;-77
2023/03/25 11:14:25;;;;;;;;;;;12.70;84.70;;;13.06;50.70;98114.13;4987181;28;123782;-81
2023/03/25 11:16:58;;;;;;;;;;;12.70;84.50;;;13.02;51.25;98115.94;4996080;28;123626;-80
2023/03/25 11:19:30;;;;;;;;;;;12.70;85.20;;;13.02;52.56;98140.91;4969584;28;113817;-76
2023/03/25 11:22:03;;;;;;;;;;;12.60;86.90;;;13.04;52.83;98121.97;4957362;28;114248;-71
2023/03/25 11:24:32;;;;;;;;;;;12.60;87.30;;;13.09;52.95;98121.75;4984223;28;123961;-77
2023/03/25 11:26:59;;;;;;;;;;;12.70;87.80;;;13.14;52.56;98118.75;4987906;28;124094;-76
2023/03/25 11:29:26;;;;;;;;;;;12.70;87.30;;;13.20;52.25;98097.94;4978883;28;114571;-77
2023/03/25 11:32:04;;;;;;;;;;;12.80;86.80;;;13.28;51.98;98093.47;4961740;28;113451;-76